Time;durP1;ratioP1;P1;durP2;ratioP2;P2;SDS_P1;SDS_P2;PMS_P1;PMS_P2;Temp;Humidity;BMP_temperature;BMP_pressure;BME280_temperature;BME280_humidity;BME280_pressure;Samples;Min_cycle;Max_cycle;Signal;HPM_P1;HPM_P2
2021/12/07 00:01:23;;;;;;;0.10;0.10;;;;;;;5.82;69.01;100556.72;5040728;28;20029;-83
2021/12/07 00:03:50;;;;;;;0.30;0.30;;;;;;;5.88;68.70;100549.66;5049696;28;20021;-86
2021/12/07 00:06:17;;;;;;;0.30;0.30;;;;;;;5.87;69.12;100558.44;5046915;28;20468;-86
2021/12/07 00:08:43;;;;;;;0.10;0.10;;;;;;;5.92;69.06;100557.53;5051229;28;20047;-82
2021/12/07 00:11:11;;;;;;;0.20;0.20;;;;;;;5.92;69.33;100567.16;5042700;28;20048;-86
2021/12/07 00:13:39;;;;;;;0.17;0.17;;;;;;;5.93;69.44;100569.81;5046516;28;20037;-86
2021/12/07 00:16:08;;;;;;;3.13;0.68;;;;;;;5.96;69.09;100575.03;5033439;28;20029;-87
2021/12/07 00:18:36;;;;;;;2.45;2.17;;;;;;;5.97;69.12;100570.66;5031777;28;20496;-82
2021/12/07 00:21:03;;;;;;;3.55;0.82;;;;;;;5.95;69.18;100567.16;5044549;28;20036;-86
2021/12/07 00:23:30;;;;;;;0.20;0.20;;;;;;;5.98;69.24;100569.75;5038715;28;20033;-87
2021/12/07 00:25:57;;;;;;;0.73;0.73;;;;;;;6.00;69.15;100575.94;5046305;28;20123;-82
2021/12/07 00:28:24;;;;;;;0.55;0.55;;;;;;;6.01;69.19;100582.94;5049579;28;20032;-84
2021/12/07 00:31:03;;;;;;;0.15;0.15;;;;;;;6.01;69.38;100604.00;5051613;28;20085;-85
2021/12/07 00:33:44;;;;;;;0.20;0.20;;;;;;;5.88;70.12;100599.63;5045604;28;20148;-79
2021/12/07 00:36:18;;;;;;;0.95;0.85;;;;;;;6.04;68.78;100596.06;5046165;28;20037;-79
2021/12/07 00:38:45;;;;;;;0.40;0.40;;;;;;;6.27;68.38;100595.09;5050961;28;20030;-80
2021/12/07 00:41:11;;;;;;;0.10;0.10;;;;;;;6.50;69.08;100586.16;5046338;28;20081;-87
2021/12/07 00:43:37;;;;;;;0.20;0.20;;;;;;;6.66;67.83;100589.53;5041217;28;20041;-82
2021/12/07 00:46:04;;;;;;;0.38;0.38;;;;;;;6.75;67.60;100598.25;5048305;28;20089;-81
2021/12/07 00:48:31;;;;;;;0.10;0.10;;;;;;;6.87;67.89;100601.66;5048865;28;20532;-86
2021/12/07 00:50:58;;;;;;;0.13;0.13;;;;;;;7.02;68.22;100600.66;5029492;28;20432;-87
2021/12/07 00:53:26;;;;;;;0.13;0.13;;;;;;;7.04;68.76;100607.66;5026116;28;20030;-84
2021/12/07 00:55:55;;;;;;;0.17;0.17;;;;;;;7.12;67.86;100618.97;5029756;28;20033;-84
2021/12/07 00:58:24;;;;;;;0.10;0.10;;;;;;;7.20;67.75;100625.94;5028204;28;20048;-87
2021/12/07 01:00:55;;;;;;;0.10;0.10;;;;;;;7.37;67.34;100631.06;5031118;28;20035;-84
2021/12/07 01:06:19;;;;;;;1.05;0.98;;;;;;;7.55;67.09;100632.59;5041582;28;20095;-82
2021/12/07 01:09:27;;;;;;;0.10;0.10;;;;;;;7.58;67.27;100632.59;5054432;28;20025;-82
2021/12/07 01:25:37;;;;;;;0.10;0.10;;;;;;;7.73;65.57;100655.28;5054413;28;20041;-84
2021/12/07 01:28:14;;;;;;;0.10;0.10;;;;;;;7.74;64.71;100665.81;5055097;28;20444;-84
2021/12/07 01:30:50;;;;;;;0.10;0.10;;;;;;;7.69;64.86;100672.00;5041002;28;20387;-83
2021/12/07 01:36:16;;;;;;;0.00;0.00;;;;;;;7.67;65.04;100676.44;5053722;28;20052;-84
2021/12/07 01:44:44;;;;;;;0.10;0.10;;;;;;;7.82;65.56;100683.31;5038105;28;20044;-83
2021/12/07 02:01:07;;;;;;;0.20;0.20;;;;;;;7.78;64.49;100719.38;5090542;28;20431;-83
2021/12/07 02:03:33;;;;;;;0.10;0.10;;;;;;;7.72;64.74;100730.88;5068328;28;20068;-82
2021/12/07 02:06:00;;;;;;;0.15;0.15;;;;;;;7.71;63.89;100728.25;5047117;28;20044;-84
2021/12/07 02:08:26;;;;;;;0.80;0.80;;;;;;;7.63;64.45;100732.72;5040519;28;20449;-82
2021/12/07 02:10:57;;;;;;;0.10;0.10;;;;;;;7.51;63.90;100733.72;5040158;28;20040;-82
2021/12/07 02:16:16;;;;;;;0.10;0.10;;;;;;;7.72;64.73;100741.41;5075296;27;20413;-83
2021/12/07 02:18:43;;;;;;;0.10;0.10;;;;;;;7.68;64.32;100739.69;5069790;28;20029;-83
2021/12/07 02:21:26;;;;;;;0.10;0.10;;;;;;;7.72;64.07;100730.88;5069526;28;20033;-83
2021/12/07 02:23:54;;;;;;;0.10;0.10;;;;;;;7.67;63.98;100743.22;5065883;28;20026;-82
2021/12/07 02:26:21;;;;;;;0.10;0.10;;;;;;;7.68;64.12;100739.69;5037869;28;20085;-83
2021/12/07 02:28:52;;;;;;;0.10;0.10;;;;;;;7.63;63.88;100740.63;5038469;28;20040;-83
2021/12/07 02:31:20;;;;;;;0.20;0.20;;;;;;;7.47;64.38;100746.03;5039983;28;20063;-83
2021/12/07 02:33:46;;;;;;;0.10;0.10;;;;;;;7.51;64.27;100747.75;5063551;22;20059;-83
2021/12/07 02:36:12;;;;;;;0.10;0.10;;;;;;;7.47;64.51;100761.00;5071531;28;20033;-82
2021/12/07 02:38:38;;;;;;;0.10;0.10;;;;;;;7.42;64.54;100764.53;5072392;28;20531;-85
2021/12/07 02:41:06;;;;;;;1.42;1.33;;;;;;;7.43;64.80;100766.28;5072343;28;20039;-84
2021/12/07 02:43:33;;;;;;;0.20;0.20;;;;;;;7.38;64.62;100773.38;5070847;28;20032;-84
2021/12/07 02:45:59;;;;;;;0.10;0.10;;;;;;;7.39;64.61;100775.13;5070986;28;20499;-84
2021/12/07 02:48:25;;;;;;;0.20;0.20;;;;;;;7.39;64.60;100784.75;5070368;28;20061;-85
2021/12/07 02:50:52;;;;;;;0.20;0.20;;;;;;;7.37;64.90;100789.19;5070924;28;20032;-86
2021/12/07 02:53:22;;;;;;;0.20;0.20;;;;;;;7.37;65.21;100786.56;5071054;28;20111;-82
2021/12/07 02:55:49;;;;;;;0.10;0.10;;;;;;;7.34;65.27;100792.72;5071006;28;20028;-83
2021/12/07 02:58:16;;;;;;;1.45;1.35;;;;;;;7.38;65.28;100797.09;5070847;28;20028;-84
2021/12/07 03:00:50;;;;;;;0.10;0.10;;;;;;;7.42;64.84;100790.91;5071475;28;20021;-85
2021/12/07 03:03:16;;;;;;;0.15;0.15;;;;;;;7.42;64.75;100796.16;5071658;28;20500;-82
2021/12/07 03:05:54;;;;;;;1.83;1.83;;;;;;;7.34;65.24;100799.75;5070520;28;20036;-84
2021/12/07 03:28:04;;;;;;;0.17;0.17;;;;;;;7.34;64.53;100847.19;5052015;28;20039;-82
2021/12/07 03:30:30;;;;;;;0.10;0.10;;;;;;;7.35;64.83;100838.41;5052570;28;20035;-88
2021/12/07 03:33:00;;;;;;;0.20;0.20;;;;;;;7.34;64.62;100834.91;5052983;28;20033;-88
2021/12/07 03:35:27;;;;;;;0.10;0.10;;;;;;;7.32;64.78;100836.66;5052273;28;20033;-86
2021/12/07 03:37:55;;;;;;;0.20;0.20;;;;;;;7.24;64.43;100838.47;5050899;28;20041;-88
2021/12/07 03:40:22;;;;;;;0.10;0.10;;;;;;;7.18;65.22;100843.78;5051219;28;20033;-87
2021/12/07 03:42:49;;;;;;;0.10;0.10;;;;;;;7.17;65.45;100842.91;5033078;28;20384;-86
2021/12/07 03:45:16;;;;;;;0.17;0.17;;;;;;;7.19;65.32;100845.53;5051622;28;20468;-86
2021/12/07 03:47:42;;;;;;;0.10;0.10;;;;;;;7.15;65.83;100849.94;5051339;28;20021;-86
2021/12/07 03:50:10;;;;;;;0.10;0.10;;;;;;;7.15;66.03;100855.22;5051775;28;20388;-87
2021/12/07 03:52:36;;;;;;;0.10;0.10;;;;;;;7.18;66.19;100849.94;5050698;28;20009;-86
2021/12/07 03:55:05;;;;;;;0.30;0.30;;;;;;;7.27;65.89;100855.13;5051765;28;20025;-87
2021/12/07 03:57:31;;;;;;;0.13;0.13;;;;;;;7.32;66.19;100847.22;5050308;28;20034;-87
2021/12/07 03:59:59;;;;;;;0.20;0.20;;;;;;;7.37;66.59;100855.97;5049940;28;20033;-85
2021/12/07 04:02:26;;;;;;;0.10;0.10;;;;;;;7.41;66.52;100851.53;5051429;28;20060;-87
2021/12/07 04:04:59;;;;;;;0.10;0.10;;;;;;;7.41;66.12;100857.72;5051361;28;20025;-87
2021/12/07 04:07:25;;;;;;;0.10;0.10;;;;;;;7.42;66.26;100850.66;5050622;28;20364;-87
2021/12/07 04:09:53;;;;;;;0.20;0.20;;;;;;;7.47;65.97;100855.91;5050554;28;20033;-84
2021/12/07 04:12:19;;;;;;;0.20;0.20;;;;;;;7.47;65.96;100853.28;5033655;28;20071;-87
2021/12/07 04:14:45;;;;;;;0.10;0.10;;;;;;;7.43;65.86;100860.31;5051395;28;20083;-87
2021/12/07 04:17:12;;;;;;;0.10;0.10;;;;;;;7.39;66.49;100843.66;5050759;28;20033;-86
2021/12/07 04:19:38;;;;;;;0.10;0.10;;;;;;;7.36;66.51;100848.06;5050432;28;20112;-87
2021/12/07 04:22:04;;;;;;;0.10;0.10;;;;;;;7.35;66.20;100876.19;5039257;28;20032;-87
2021/12/07 04:24:30;;;;;;;0.13;0.13;;;;;;;7.29;66.26;100878.88;5036911;28;20083;-86
2021/12/07 04:26:56;;;;;;;0.10;0.10;;;;;;;7.25;66.12;100866.56;5035346;28;20119;-86
2021/12/07 04:29:22;;;;;;;0.20;0.20;;;;;;;7.21;65.87;100870.97;5036900;28;20037;-86
2021/12/07 04:31:49;;;;;;;0.10;0.10;;;;;;;7.18;66.20;100870.13;5037044;28;20040;-86
2021/12/07 04:34:15;;;;;;;0.20;0.20;;;;;;;7.12;66.31;100866.63;5037089;28;20084;-81
2021/12/07 04:36:41;;;;;;;0.10;0.10;;;;;;;7.13;66.50;100884.22;5036704;28;20519;-82
2021/12/07 04:39:09;;;;;;;0.20;0.20;;;;;;;7.16;66.05;100885.09;5036704;28;20034;-84
2021/12/07 04:41:35;;;;;;;0.20;0.20;;;;;;;7.14;66.39;100874.56;5036262;28;20428;-85
2021/12/07 04:44:03;;;;;;;0.10;0.10;;;;;;;7.18;66.57;100888.56;5037297;28;20083;-83
2021/12/07 04:46:38;;;;;;;0.20;0.20;;;;;;;7.27;66.33;100893.81;5036434;28;20037;-84
2021/12/07 04:49:44;;;;;;;0.10;0.10;;;;;;;7.28;65.88;100887.66;5035500;28;20037;-85
2021/12/07 04:57:44;;;;;;;0.10;0.10;;;;;;;7.21;65.94;100904.38;5035751;28;20030;-85
2021/12/07 05:03:02;;;;;;;0.10;0.10;;;;;;;7.15;65.78;100891.22;5091953;28;20413;-81
2021/12/07 05:05:33;;;;;;;0.10;0.10;;;;;;;7.10;65.45;100881.59;5055284;28;20026;-81
2021/12/07 05:08:04;;;;;;;0.20;0.20;;;;;;;7.04;65.56;100892.16;5051206;28;20132;-81
2021/12/07 05:10:32;;;;;;;0.10;0.10;;;;;;;7.05;65.47;100901.84;5051926;28;20032;-85
2021/12/07 05:18:58;;;;;;;0.17;0.17;;;;;;;6.86;66.12;100905.41;5112807;27;20376;-84
2021/12/07 05:24:05;;;;;;;0.20;0.20;;;;;;;6.83;65.85;100922.09;5111883;28;20043;-86
2021/12/07 05:38:00;;;;;;;0.10;0.10;;;;;;;6.66;66.29;100964.28;5092589;27;20397;-86
2021/12/07 05:40:30;;;;;;;0.10;0.10;;;;;;;6.66;65.99;100966.91;5072607;28;20119;-85
2021/12/07 05:42:57;;;;;;;0.10;0.10;;;;;;;6.58;65.86;100969.56;5072300;28;20051;-87
2021/12/07 05:45:30;;;;;;;0.57;0.57;;;;;;;6.53;66.12;100979.22;5057226;28;20435;-85
2021/12/07 05:47:56;;;;;;;0.10;0.10;;;;;;;6.46;66.24;100969.56;5050765;28;20106;-85
2021/12/07 05:50:26;;;;;;;0.10;0.10;;;;;;;6.45;66.13;100973.06;5052199;28;20469;-87
2021/12/07 05:52:54;;;;;;;0.38;0.38;;;;;;;6.36;66.42;100971.31;5050888;28;20043;-85
2021/12/07 05:55:20;;;;;;;0.10;0.10;;;;;;;6.34;66.42;100967.81;5050914;28;20087;-85
2021/12/07 05:57:46;;;;;;;0.10;0.10;;;;;;;6.30;66.35;100968.69;5051537;28;20415;-84
2021/12/07 06:00:23;;;;;;;0.10;0.10;;;;;;;6.30;66.18;100960.81;5050865;28;20395;-85
2021/12/07 06:02:49;;;;;;;0.10;0.10;;;;;;;6.26;66.35;100953.81;5052733;28;20033;-83
2021/12/07 06:05:15;;;;;;;0.10;0.10;;;;;;;6.21;66.22;100955.56;5054370;28;20112;-87
2021/12/07 06:07:41;;;;;;;0.10;0.10;;;;;;;6.14;65.99;100946.78;5052127;28;20033;-84
2021/12/07 06:10:08;;;;;;;0.20;0.20;;;;;;;6.09;66.08;100946.78;5051761;28;20033;-82
2021/12/07 06:12:34;;;;;;;0.10;0.10;;;;;;;6.04;66.35;100950.28;5051818;28;20116;-85
2021/12/07 06:15:00;;;;;;;0.20;0.20;;;;;;;5.99;66.23;100950.28;5050898;28;20064;-84
2021/12/07 06:17:26;;;;;;;0.10;0.10;;;;;;;5.91;66.40;100957.28;5049600;28;20025;-83
2021/12/07 06:19:52;;;;;;;0.15;0.15;;;;;;;5.87;66.33;100963.38;5051150;28;20043;-84
2021/12/07 06:22:18;;;;;;;0.20;0.20;;;;;;;5.79;66.56;100956.34;5050085;28;20036;-84
2021/12/07 06:24:45;;;;;;;0.10;0.10;;;;;;;5.77;66.48;100965.09;5049774;28;20033;-85
2021/12/07 06:27:11;;;;;;;0.10;0.10;;;;;;;5.73;66.71;100960.72;5033258;28;20117;-85
2021/12/07 06:29:37;;;;;;;0.15;0.15;;;;;;;5.72;66.38;100959.88;5031225;28;20045;-86
2021/12/07 06:32:04;;;;;;;0.10;0.10;;;;;;;5.70;66.63;100960.75;5030582;28;20034;-83
2021/12/07 06:34:31;;;;;;;0.20;0.20;;;;;;;5.66;66.85;100965.13;5037547;28;20026;-86
2021/12/07 06:36:58;;;;;;;0.13;0.13;;;;;;;5.68;67.00;100968.59;5047148;28;20083;-86
2021/12/07 06:39:24;;;;;;;0.10;0.10;;;;;;;5.65;66.84;100964.22;5049639;28;20114;-86
2021/12/07 06:41:50;;;;;;;0.10;0.10;;;;;;;5.61;66.99;100967.72;5049420;28;20496;-86
2021/12/07 06:44:16;;;;;;;0.10;0.10;;;;;;;5.60;66.99;100971.22;5050367;28;20033;-87
2021/12/07 06:46:44;;;;;;;0.20;0.20;;;;;;;5.56;66.98;100973.81;5036574;28;20033;-84
2021/12/07 06:49:10;;;;;;;0.10;0.10;;;;;;;5.49;67.12;100972.94;5017703;28;20037;-85
2021/12/07 06:51:36;;;;;;;0.10;0.10;;;;;;;5.43;67.19;100979.06;5032535;28;20104;-84
2021/12/07 06:54:02;;;;;;;0.20;0.20;;;;;;;5.44;67.26;100966.78;5036008;28;20042;-86
2021/12/07 06:56:28;;;;;;;0.22;0.22;;;;;;;5.45;67.18;100963.31;5037163;28;20124;-84
2021/12/07 06:58:55;;;;;;;0.20;0.20;;;;;;;5.42;66.96;100973.78;5037370;28;20030;-85
2021/12/07 07:01:21;;;;;;;0.10;0.10;;;;;;;5.38;67.32;100965.00;5036229;28;20120;-85
2021/12/07 07:03:48;;;;;;;0.13;0.13;;;;;;;5.35;66.71;100970.28;5036202;28;20025;-86
2021/12/07 07:06:14;;;;;;;0.10;0.10;;;;;;;5.31;66.72;100976.41;5034045;28;20044;-87
2021/12/07 07:08:40;;;;;;;0.10;0.10;;;;;;;5.27;66.52;100977.22;5035167;28;20033;-87
2021/12/07 07:11:06;;;;;;;0.10;0.10;;;;;;;5.21;66.36;100980.72;5031197;28;20033;-86
2021/12/07 07:13:33;;;;;;;1.35;0.55;;;;;;;5.13;66.15;100980.69;5033461;28;20585;-87
2021/12/07 07:16:00;;;;;;;0.20;0.20;;;;;;;5.07;66.16;100988.56;5034018;28;20044;-87
2021/12/07 07:18:26;;;;;;;0.10;0.10;;;;;;;5.06;66.29;100985.91;5031328;28;20022;-86
2021/12/07 07:20:55;;;;;;;0.20;0.20;;;;;;;5.09;66.66;100986.78;5023487;28;20025;-86
2021/12/07 07:23:23;;;;;;;0.10;0.10;;;;;;;5.16;66.98;100993.84;5035220;28;20110;-86
2021/12/07 07:25:50;;;;;;;0.10;0.10;;;;;;;5.20;67.61;100992.09;5035943;28;20045;-86
2021/12/07 07:28:16;;;;;;;0.20;0.20;;;;;;;5.27;67.53;100993.91;5036468;28;20037;-87
2021/12/07 07:30:42;;;;;;;0.20;0.20;;;;;;;5.32;67.54;100988.63;5036361;28;20089;-87
2021/12/07 07:33:08;;;;;;;0.10;0.10;;;;;;;5.32;67.41;100975.50;5035622;28;20032;-86
2021/12/07 07:35:34;;;;;;;0.20;0.20;;;;;;;5.33;67.35;100974.63;5035581;28;20484;-87
2021/12/07 07:38:01;;;;;;;0.10;0.10;;;;;;;5.30;67.59;100966.75;5035827;28;20034;-87
2021/12/07 07:40:27;;;;;;;0.10;0.10;;;;;;;5.24;67.67;100962.34;5035947;28;20033;-87
2021/12/07 07:42:53;;;;;;;0.10;0.10;;;;;;;5.27;67.48;100956.22;5036362;28;20097;-87
2021/12/07 07:45:19;;;;;;;0.20;0.20;;;;;;;5.23;67.65;100964.97;5036303;28;20048;-85
2021/12/07 07:47:46;;;;;;;0.13;0.13;;;;;;;5.21;67.80;100972.84;5034052;28;20388;-86
2021/12/07 07:50:14;;;;;;;0.17;0.17;;;;;;;5.21;67.80;100961.44;5034009;28;20059;-87
2021/12/07 07:52:40;;;;;;;0.20;0.20;;;;;;;5.14;68.16;100963.19;5034830;28;20052;-86
2021/12/07 07:55:08;;;;;;;0.20;0.20;;;;;;;5.19;67.93;100964.06;5028562;28;20033;-83
2021/12/07 07:57:34;;;;;;;0.20;0.20;;;;;;;5.16;68.34;100964.94;5025967;28;20101;-84
2021/12/07 08:00:00;;;;;;;0.17;0.17;;;;;;;5.22;68.19;100964.09;5022858;28;20112;-86
2021/12/07 08:02:27;;;;;;;0.13;0.13;;;;;;;5.22;68.33;100958.84;5031187;28;20109;-86
2021/12/07 08:04:53;;;;;;;0.40;0.40;;;;;;;5.25;68.62;100971.13;5027932;28;20492;-85
2021/12/07 08:07:19;;;;;;;0.80;0.80;;;;;;;5.25;68.29;100974.63;5009728;28;20377;-86
2021/12/07 08:09:45;;;;;;;0.20;0.20;;;;;;;5.31;68.11;100986.91;5031039;28;20121;-87
2021/12/07 08:12:11;;;;;;;0.20;0.20;;;;;;;5.25;68.26;100979.88;5015008;28;20050;-87
2021/12/07 08:14:38;;;;;;;0.63;0.60;;;;;;;5.26;68.31;100972.84;5026660;28;20385;-92
2021/12/07 08:17:04;;;;;;;0.10;0.10;;;;;;;5.29;68.04;100976.38;5023410;28;20033;-79
2021/12/07 08:19:32;;;;;;;1.48;1.38;;;;;;;5.29;68.24;100980.75;5034078;28;20032;-87
2021/12/07 08:21:58;;;;;;;0.20;0.20;;;;;;;5.29;68.23;100980.75;5026182;28;20037;-86
2021/12/07 08:24:24;;;;;;;0.20;0.20;;;;;;;5.29;67.93;100975.50;5023019;28;20061;-86
2021/12/07 08:26:50;;;;;;;0.10;0.10;;;;;;;5.30;68.39;100969.38;5018756;28;20037;-86
2021/12/07 08:29:16;;;;;;;0.20;0.20;;;;;;;5.29;68.62;100975.50;5034770;28;20397;-87
2021/12/07 08:31:43;;;;;;;0.10;0.10;;;;;;;5.30;68.78;100978.13;5034332;28;20075;-86
2021/12/07 08:34:09;;;;;;;0.30;0.30;;;;;;;5.34;68.72;100976.41;5034711;28;20026;-86
2021/12/07 08:36:36;;;;;;;0.10;0.10;;;;;;;5.37;68.77;100986.03;5031891;28;20033;-85
2021/12/07 08:39:03;;;;;;;0.28;0.28;;;;;;;5.38;68.90;100986.03;5016922;28;20041;-87
2021/12/07 08:41:29;;;;;;;0.20;0.20;;;;;;;5.40;68.91;100984.31;5016099;28;20116;-87
2021/12/07 08:43:56;;;;;;;0.30;0.30;;;;;;;5.40;68.84;100983.44;5018761;28;20030;-87
2021/12/07 08:46:22;;;;;;;0.10;0.10;;;;;;;5.52;68.73;100988.75;5033727;28;20577;-88
2021/12/07 08:48:48;;;;;;;0.20;0.20;;;;;;;5.56;68.59;100984.34;5032079;28;20160;-87
2021/12/07 08:51:16;;;;;;;0.20;0.20;;;;;;;5.60;68.60;100972.97;5032860;28;20036;-84
2021/12/07 08:53:57;;;;;;;0.20;0.20;;;;;;;5.56;68.75;100969.47;5032061;28;20022;-89
2021/12/07 08:59:45;;;;;;;2.20;1.55;;;;;;;5.62;68.60;100973.84;5024981;28;20038;-88
2021/12/07 09:01:56;;;;;;;0.10;0.10;;;;;;;5.61;68.64;100965.09;5030540;28;20401;-86
2021/12/07 09:04:22;;;;;;;0.47;0.47;;;;;;;5.65;68.34;100973.88;5032227;28;20539;-87
2021/12/07 09:06:50;;;;;;;0.20;0.20;;;;;;;5.72;68.79;100978.28;5032993;28;20021;-87
2021/12/07 09:09:16;;;;;;;0.43;0.43;;;;;;;5.79;68.86;100985.28;5033111;28;20029;-88
2021/12/07 09:11:43;;;;;;;0.20;0.20;;;;;;;5.87;68.84;100980.06;5032107;28;20148;-87
2021/12/07 09:14:13;;;;;;;0.10;0.10;;;;;;;5.97;69.02;100986.22;5030194;28;20087;-87
2021/12/07 09:16:40;;;;;;;0.10;0.10;;;;;;;6.06;69.14;100983.59;5031802;28;20454;-87
2021/12/07 09:19:06;;;;;;;0.20;0.20;;;;;;;6.23;69.14;100993.25;5031518;28;20029;-86
2021/12/07 09:21:33;;;;;;;0.20;0.20;;;;;;;6.29;69.08;100988.00;5031787;28;20494;-85
2021/12/07 09:24:01;;;;;;;0.20;0.20;;;;;;;6.38;69.13;100977.47;5029316;28;20056;-85
2021/12/07 09:26:27;;;;;;;3.78;3.40;;;;;;;6.37;68.94;100977.44;5029424;28;20034;-89
2021/12/07 09:28:53;;;;;;;0.17;0.17;;;;;;;6.39;68.83;100984.50;5032366;28;20112;-88
2021/12/07 09:31:22;;;;;;;0.82;0.82;;;;;;;6.34;68.91;100980.97;5031971;28;20119;-88
2021/12/07 09:33:48;;;;;;;0.10;0.10;;;;;;;6.43;68.55;100969.56;5033070;28;20060;-88
2021/12/07 09:36:15;;;;;;;0.10;0.10;;;;;;;6.44;68.01;100966.94;5033016;28;20029;-83
2021/12/07 09:38:42;;;;;;;0.10;0.10;;;;;;;6.47;68.29;100971.31;5032803;28;20034;-86
2021/12/07 09:41:12;;;;;;;0.10;0.10;;;;;;;6.54;67.86;100978.34;5033453;28;20026;-85
2021/12/07 09:43:39;;;;;;;0.13;0.13;;;;;;;6.58;68.14;100974.81;5033007;28;20021;-82
2021/12/07 09:46:08;;;;;;;0.20;0.20;;;;;;;6.57;68.13;100982.72;5033315;28;20034;-87
2021/12/07 09:48:35;;;;;;;0.20;0.20;;;;;;;6.61;68.29;100979.19;5031696;28;20028;-86
2021/12/07 09:51:03;;;;;;;0.10;0.10;;;;;;;6.72;67.87;100982.69;5021265;28;20085;-86
2021/12/07 09:53:29;;;;;;;0.10;0.10;;;;;;;6.76;67.69;100978.31;5033221;28;20044;-84
2021/12/07 09:55:57;;;;;;;0.20;0.20;;;;;;;6.80;68.00;100964.22;5029271;28;20037;-87
2021/12/07 09:58:23;;;;;;;0.20;0.20;;;;;;;6.85;67.93;100974.78;5030672;28;20116;-86
2021/12/07 10:00:51;;;;;;;12.20;1.30;;;;;;;6.89;68.29;100981.78;5031999;28;20030;-84
2021/12/07 10:03:20;;;;;;;0.20;0.20;;;;;;;7.02;67.51;100980.00;5032404;28;20784;-86
2021/12/07 10:05:46;;;;;;;0.17;0.17;;;;;;;7.08;67.65;100980.84;5018577;28;20053;-87
2021/12/07 10:08:13;;;;;;;0.20;0.20;;;;;;;7.11;68.13;100967.66;5013199;28;20389;-89
2021/12/07 10:10:44;;;;;;;0.57;0.57;;;;;;;7.26;67.60;100979.03;5013295;28;20508;-87
2021/12/07 10:13:12;;;;;;;0.10;0.10;;;;;;;7.25;67.61;100980.78;5012725;28;20040;-88
2021/12/07 10:15:39;;;;;;;0.17;0.17;;;;;;;7.33;67.93;100974.59;5012490;28;20081;-89
2021/12/07 10:20:58;;;;;;;0.10;0.10;;;;;;;7.48;66.88;100969.25;5110816;27;20641;-86
2021/12/07 10:23:37;;;;;;;0.10;0.10;;;;;;;7.55;66.53;100954.28;5098461;28;20077;-87
2021/12/07 10:28:54;;;;;;;0.10;0.10;;;;;;;7.68;66.93;100945.41;5110930;27;20391;-90
2021/12/07 10:31:42;;;;;;;1.88;1.70;;;;;;;7.82;66.08;100926.84;5111104;28;20036;-88
2021/12/07 10:36:52;;;;;;;0.20;0.20;;;;;;;7.92;65.58;100906.53;5090348;27;20405;-86
2021/12/07 10:42:03;;;;;;;0.10;0.10;;;;;;;8.05;65.40;100908.19;5103827;27;20408;-82
2021/12/07 10:44:33;;;;;;;0.10;0.10;;;;;;;8.13;65.07;100899.34;5089635;28;20530;-88
2021/12/07 10:47:05;;;;;;;0.10;0.10;;;;;;;8.17;65.09;100899.28;5090248;28;20427;-84
2021/12/07 10:52:40;;;;;;;0.20;0.20;;;;;;;8.20;64.20;100885.19;5071409;27;20435;-88
2021/12/07 11:00:43;;;;;;;0.22;0.22;;;;;;;8.40;64.46;100880.59;5110835;27;20418;-86
2021/12/07 11:03:14;;;;;;;0.20;0.20;;;;;;;8.37;64.16;100878.00;5110487;28;20028;-86
2021/12/07 11:05:46;;;;;;;0.10;0.10;;;;;;;8.31;64.44;100878.06;5105827;28;20555;-84
2021/12/07 11:08:14;;;;;;;0.35;0.35;;;;;;;8.36;64.75;100878.88;5089984;28;20028;-87
2021/12/07 11:10:45;;;;;;;0.20;0.20;;;;;;;8.31;63.05;100883.34;5087531;28;20059;-86
2021/12/07 11:13:18;;;;;;;0.20;0.20;;;;;;;8.34;63.97;100882.44;5091644;28;20026;-81
2021/12/07 11:15:51;;;;;;;0.20;0.20;;;;;;;8.30;64.70;100875.41;5089024;28;20028;-88
2021/12/07 11:18:22;;;;;;;0.35;0.35;;;;;;;8.28;62.97;100879.84;5090409;28;20024;-88
2021/12/07 11:20:49;;;;;;;0.10;0.10;;;;;;;8.15;63.31;100871.16;5099306;28;20451;-88
2021/12/07 11:23:21;;;;;;;0.20;0.20;;;;;;;8.22;63.81;100867.56;5089678;28;20058;-88
2021/12/07 11:34:24;;;;;;;0.10;0.10;;;;;;;8.43;63.43;100850.63;5069156;27;20402;-87
2021/12/07 11:42:11;;;;;;;0.13;0.13;;;;;;;8.27;61.89;100823.53;5077647;27;20438;-88
2021/12/07 11:47:33;;;;;;;22.67;2.60;;;;;;;8.43;62.01;100826.88;5091498;27;20418;-85
2021/12/07 11:50:11;;;;;;;0.13;0.13;;;;;;;8.54;62.14;100811.81;5085743;28;20033;-88
2021/12/07 11:52:38;;;;;;;0.20;0.20;;;;;;;8.53;61.26;100810.06;5077401;28;20032;-87
2021/12/07 11:55:05;;;;;;;0.10;0.10;;;;;;;8.64;61.48;100811.72;5079367;28;20056;-88
2021/12/07 11:57:31;;;;;;;0.32;0.32;;;;;;;8.69;61.76;100809.88;5080417;28;20493;-86
2021/12/07 11:59:57;;;;;;;0.20;0.20;;;;;;;8.64;61.78;100796.72;5091664;28;20028;-89
2021/12/07 12:02:24;;;;;;;0.20;0.20;;;;;;;8.78;61.77;100778.06;5085154;28;20028;-87
2021/12/07 12:04:51;;;;;;;0.20;0.20;;;;;;;8.79;61.77;100789.50;5066808;28;20024;-88
2021/12/07 12:07:19;;;;;;;0.45;0.45;;;;;;;8.85;61.81;100779.72;5061688;28;20040;-88
2021/12/07 12:09:50;;;;;;;0.10;0.10;;;;;;;8.79;60.92;100763.09;5072998;28;20502;-89
2021/12/07 12:18:08;;;;;;;0.10;0.10;;;;;;;8.97;60.41;100739.06;5057680;27;20420;-88
2021/12/07 12:23:43;;;;;;;0.10;0.10;;;;;;;8.95;60.89;100722.34;5078249;27;20517;-89
2021/12/07 12:26:11;;;;;;;;;;;;;;;9.05;60.05;100718.63;5063336;28;20033;-88
2021/12/07 12:28:42;;;;;;;0.10;0.10;;;;;;;8.93;60.80;100713.53;5053702;28;20284;-88
2021/12/07 12:31:11;;;;;;;0.10;0.10;;;;;;;8.89;60.69;100719.78;5062655;28;20147;-90
2021/12/07 12:33:56;;;;;;;0.10;0.10;;;;;;;8.98;60.57;100709.06;5056638;28;20021;-89
2021/12/07 12:36:24;;;;;;;0.13;0.13;;;;;;;8.92;60.81;100709.16;5051039;28;20021;-88
2021/12/07 12:39:07;;;;;;;2.65;2.17;;;;;;;8.98;60.83;100702.91;5054711;28;20503;-89
2021/12/07 12:41:33;;;;;;;0.20;0.20;;;;;;;8.93;61.59;100696.84;5064405;28;20037;-88
2021/12/07 12:44:14;;;;;;;0.22;0.22;;;;;;;8.94;61.09;100688.88;5050287;28;20029;-89
2021/12/07 12:46:42;;;;;;;0.10;0.10;;;;;;;8.89;61.02;100696.88;5060572;28;20068;-89
2021/12/07 12:49:12;;;;;;;0.10;0.10;;;;;;;8.85;60.60;100683.75;5056105;28;20028;-88
2021/12/07 12:51:48;;;;;;;0.10;0.10;;;;;;;8.91;60.33;100667.81;5057428;28;20075;-88
2021/12/07 12:54:15;;;;;;;0.75;0.75;;;;;;;8.84;60.63;100643.22;5058370;28;20334;-86
2021/12/07 12:56:42;;;;;;;0.20;0.20;;;;;;;8.82;60.86;100625.66;5051131;28;20047;-90
2021/12/07 12:59:11;;;;;;;0.47;0.47;;;;;;;8.83;60.57;100648.53;5055362;28;20025;-88
2021/12/07 13:01:43;;;;;;;0.13;0.13;;;;;;;8.80;60.49;100651.22;5058773;28;20026;-87
2021/12/07 13:07:23;;;;;;;0.40;0.40;;;;;;;8.76;60.65;100620.47;5003616;27;1960920;-86
2021/12/07 13:09:46;;;;;;;0.13;0.13;;;;;;;8.64;60.27;100622.41;5049194;28;21344;-85
2021/12/07 13:14:59;;;;;;;0.25;0.25;;;;;;;8.71;60.71;100610.88;5006066;27;2247407;-86
2021/12/07 13:20:30;;;;;;;0.20;0.20;;;;;;;8.65;59.76;100596.88;5083961;27;20480;-86
2021/12/07 13:25:46;;;;;;;0.10;0.10;;;;;;;8.62;60.56;100575.78;5043550;28;20429;-85
2021/12/07 13:28:33;;;;;;;0.17;0.17;;;;;;;8.60;61.36;100567.00;5039521;28;20030;-87
2021/12/07 13:33:54;;;;;;;0.10;0.10;;;;;;;8.62;61.06;100567.88;4995543;27;1812734;-89
2021/12/07 13:47:46;;;;;;;0.13;0.13;;;;;;;8.42;61.94;100532.94;5089865;28;20393;-88
2021/12/07 13:50:16;;;;;;;0.20;0.20;;;;;;;8.43;61.91;100531.16;5077712;28;20035;-88
2021/12/07 13:52:47;;;;;;;0.10;0.10;;;;;;;8.34;61.96;100529.56;5069971;28;20039;-89
2021/12/07 13:55:16;;;;;;;4.38;1.00;;;;;;;8.24;62.39;100514.75;5062845;28;20037;-89
2021/12/07 13:57:46;;;;;;;0.20;0.20;;;;;;;8.23;62.67;100511.22;5052751;28;20060;-92
2021/12/07 14:03:00;;;;;;;0.63;0.63;;;;;;;8.08;62.75;100499.16;5065297;27;20402;-82
2021/12/07 14:05:33;;;;;;;0.10;0.10;;;;;;;8.08;62.49;100496.50;5036539;28;20029;-89
2021/12/07 14:08:04;;;;;;;0.20;0.20;;;;;;;8.06;62.63;100487.78;5026917;28;20089;-87
2021/12/07 14:10:37;;;;;;;0.20;0.20;;;;;;;8.07;62.83;100478.06;5028806;28;20030;-86
2021/12/07 14:13:04;;;;;;;0.10;0.10;;;;;;;8.04;63.38;100481.63;5028371;28;20383;-86
2021/12/07 14:15:34;;;;;;;0.10;0.10;;;;;;;8.01;62.66;100481.69;5028989;28;20117;-88
2021/12/07 14:18:07;;;;;;;0.10;0.10;;;;;;;8.01;63.01;100473.78;5028636;28;20069;-88
2021/12/07 14:26:21;;;;;;;0.20;0.20;;;;;;;8.05;63.59;100483.38;5073569;28;20189;-88
2021/12/07 14:28:56;;;;;;;0.20;0.20;;;;;;;8.00;63.12;100485.22;5072584;28;20058;-82
2021/12/07 14:31:27;;;;;;;0.13;0.13;;;;;;;7.97;63.26;100495.81;5072197;28;20127;-88
2021/12/07 14:34:02;;;;;;;0.13;0.13;;;;;;;7.96;63.65;100490.56;5071713;28;20388;-85